RLU210 UUWW-UUDL
Flight info
| Callsign | RLU210 |
|---|---|
| Flight time | 0h 39m |
| Altitude | 27000 |
| Route | RILPO3B RILPO T753 RANTO RANTO2N |
| Aircraft | E145/M-SABDFGRW/S |
Departure
| Time | 2026-04-15 13:19 |
|---|---|
| Airport | Vnukovo International Airport (UUWW) |
Arrival
| Time | 2026-04-15 13:59 |
|---|---|
| Airport | Golden Ring Yaroslavl International Airport (UUDL) |
| Time | Latitude | Longitude | Altitude | Speed | Heading |
|---|---|---|---|---|---|
| 2026-04-15 12:40 | 55.60237 | 37.27726 | 694 ft | 0 kts | 90° |
| 2026-04-15 13:09 | 55.60237 | 37.27729 | 693 ft | 0 kts | 90° |
| 2026-04-15 13:09 | 55.60237 | 37.27749 | 693 ft | 2 kts | 90° |
| 2026-04-15 13:10 | 55.60236 | 37.27766 | 693 ft | 2 kts | 91° |
| 2026-04-15 13:10 | 55.60233 | 37.27799 | 693 ft | 3 kts | 113° |
| 2026-04-15 13:10 | 55.60216 | 37.27839 | 693 ft | 4 kts | 130° |
| 2026-04-15 13:10 | 55.60187 | 37.27887 | 693 ft | 6 kts | 155° |
| 2026-04-15 13:11 | 55.60140 | 37.27899 | 693 ft | 7 kts | 184° |
| 2026-04-15 13:11 | 55.60091 | 37.27844 | 693 ft | 9 kts | 224° |
| 2026-04-15 13:11 | 55.60039 | 37.27760 | 693 ft | 10 kts | 213° |
| 2026-04-15 13:11 | 55.59978 | 37.27667 | 693 ft | 12 kts | 229° |
| 2026-04-15 13:12 | 55.59931 | 37.27553 | 693 ft | 10 kts | 234° |
| 2026-04-15 13:12 | 55.59875 | 37.27448 | 693 ft | 12 kts | 225° |
| 2026-04-15 13:12 | 55.59812 | 37.27329 | 693 ft | 14 kts | 226° |
| 2026-04-15 13:12 | 55.59741 | 37.27198 | 693 ft | 15 kts | 225° |
| 2026-04-15 13:13 | 55.59662 | 37.27053 | 693 ft | 17 kts | 225° |
| 2026-04-15 13:13 | 55.59578 | 37.26896 | 693 ft | 18 kts | 229° |
| 2026-04-15 13:13 | 55.59515 | 37.26713 | 693 ft | 6 kts | 245° |
| 2026-04-15 13:13 | 55.59498 | 37.26639 | 693 ft | 7 kts | 248° |
| 2026-04-15 13:14 | 55.59477 | 37.26546 | 693 ft | 8 kts | 248° |
| 2026-04-15 13:14 | 55.59449 | 37.26423 | 693 ft | 14 kts | 248° |
| 2026-04-15 13:14 | 55.59407 | 37.26237 | 693 ft | 17 kts | 248° |
| 2026-04-15 13:14 | 55.59361 | 37.26033 | 693 ft | 18 kts | 248° |
| 2026-04-15 13:15 | 55.59311 | 37.25812 | 693 ft | 19 kts | 248° |
| 2026-04-15 13:15 | 55.59261 | 37.25578 | 693 ft | 21 kts | 248° |
| 2026-04-15 13:15 | 55.59203 | 37.25328 | 693 ft | 22 kts | 248° |
| 2026-04-15 13:15 | 55.59146 | 37.25072 | 693 ft | 22 kts | 248° |
| 2026-04-15 13:16 | 55.59094 | 37.24842 | 693 ft | 19 kts | 248° |
| 2026-04-15 13:16 | 55.59044 | 37.24615 | 693 ft | 20 kts | 249° |
| 2026-04-15 13:16 | 55.58984 | 37.24376 | 693 ft | 21 kts | 243° |
| 2026-04-15 13:16 | 55.58912 | 37.24133 | 693 ft | 23 kts | 243° |
| 2026-04-15 13:17 | 55.58862 | 37.23959 | 693 ft | 13 kts | 242° |
| 2026-04-15 13:17 | 55.58817 | 37.23812 | 693 ft | 8 kts | 236° |
| 2026-04-15 13:17 | 55.58767 | 37.23799 | 693 ft | 0 kts | 159° |
| 2026-04-15 13:18 | 55.58758 | 37.23805 | 693 ft | 4 kts | 159° |
| 2026-04-15 13:18 | 55.58693 | 37.23852 | 693 ft | 12 kts | 153° |
| 2026-04-15 13:18 | 55.58677 | 37.24017 | 693 ft | 18 kts | 68° |
| 2026-04-15 13:18 | 55.58772 | 37.24438 | 693 ft | 66 kts | 68° |
| 2026-04-15 13:19 | 55.59016 | 37.25534 | 693 ft | 122 kts | 68° |
| 2026-04-15 13:19 | 55.59380 | 37.27127 | 840 ft | 147 kts | 68° |
| 2026-04-15 13:19 | 55.59745 | 37.28845 | 1233 ft | 156 kts | 68° |
| 2026-04-15 13:19 | 55.60193 | 37.30573 | 1830 ft | 157 kts | 72° |
| 2026-04-15 13:20 | 55.60557 | 37.32355 | 2492 ft | 152 kts | 73° |
| 2026-04-15 13:20 | 55.60934 | 37.34137 | 2859 ft | 166 kts | 74° |
| 2026-04-15 13:20 | 55.61368 | 37.36066 | 3283 ft | 178 kts | 73° |
| 2026-04-15 13:20 | 55.61863 | 37.38308 | 3393 ft | 208 kts | 78° |
| 2026-04-15 13:21 | 55.61793 | 37.40786 | 4002 ft | 207 kts | 113° |
| 2026-04-15 13:21 | 55.60898 | 37.42744 | 4700 ft | 208 kts | 133° |
| 2026-04-15 13:21 | 55.59894 | 37.44559 | 5369 ft | 209 kts | 131° |
| 2026-04-15 13:21 | 55.58894 | 37.46397 | 6033 ft | 211 kts | 133° |
| 2026-04-15 13:22 | 55.57602 | 37.47586 | 6655 ft | 221 kts | 167° |
| 2026-04-15 13:22 | 55.56014 | 37.47188 | 6948 ft | 243 kts | 198° |
| 2026-04-15 13:22 | 55.54709 | 37.45216 | 6960 ft | 256 kts | 228° |
| 2026-04-15 13:22 | 55.53581 | 37.42767 | 6953 ft | 262 kts | 218° |
| 2026-04-15 13:23 | 55.52265 | 37.40430 | 6944 ft | 268 kts | 217° |
| 2026-04-15 13:23 | 55.50952 | 37.38170 | 6933 ft | 262 kts | 217° |
| 2026-04-15 13:23 | 55.49646 | 37.35932 | 6961 ft | 270 kts | 220° |
| 2026-04-15 13:23 | 55.48734 | 37.32959 | 7518 ft | 288 kts | 252° |
| 2026-04-15 13:24 | 55.48745 | 37.29431 | 8086 ft | 300 kts | 283° |
| 2026-04-15 13:24 | 55.49734 | 37.26174 | 8655 ft | 304 kts | 314° |
| 2026-04-15 13:24 | 55.51446 | 37.24101 | 9191 ft | 301 kts | 342° |
| 2026-04-15 13:24 | 55.53258 | 37.22309 | 9734 ft | 309 kts | 322° |
| 2026-04-15 13:25 | 55.54876 | 37.19767 | 10280 ft | 314 kts | 317° |
| 2026-04-15 13:25 | 55.56412 | 37.16968 | 10853 ft | 318 kts | 315° |
| 2026-04-15 13:25 | 55.57976 | 37.14124 | 11187 ft | 329 kts | 315° |
| 2026-04-15 13:25 | 55.59560 | 37.11234 | 11740 ft | 331 kts | 315° |
| 2026-04-15 13:26 | 55.61160 | 37.08315 | 12299 ft | 333 kts | 315° |
| 2026-04-15 13:26 | 55.62779 | 37.05356 | 12804 ft | 337 kts | 315° |
| 2026-04-15 13:26 | 55.64508 | 37.02612 | 13324 ft | 335 kts | 332° |
| 2026-04-15 13:26 | 55.66617 | 37.00904 | 13805 ft | 334 kts | 342° |
| 2026-04-15 13:27 | 55.68747 | 36.99343 | 14317 ft | 336 kts | 342° |
| 2026-04-15 13:27 | 55.70918 | 36.97751 | 14804 ft | 338 kts | 341° |
| 2026-04-15 13:27 | 55.73100 | 36.96148 | 15262 ft | 341 kts | 342° |
| 2026-04-15 13:27 | 55.75259 | 36.94510 | 15714 ft | 344 kts | 341° |
| 2026-04-15 13:28 | 55.77475 | 36.92816 | 16175 ft | 346 kts | 340° |
| 2026-04-15 13:28 | 55.79677 | 36.91131 | 16618 ft | 348 kts | 340° |
| 2026-04-15 13:28 | 55.81932 | 36.89735 | 17064 ft | 344 kts | 356° |
| 2026-04-15 13:28 | 55.84288 | 36.89627 | 17511 ft | 339 kts | 7° |
| 2026-04-15 13:29 | 55.86700 | 36.89728 | 17572 ft | 356 kts | 7° |
| 2026-04-15 13:29 | 55.89236 | 36.89831 | 17747 ft | 367 kts | 7° |
| 2026-04-15 13:29 | 55.91765 | 36.89934 | 18232 ft | 366 kts | 6° |
| 2026-04-15 13:29 | 55.94307 | 36.90039 | 18755 ft | 365 kts | 6° |
| 2026-04-15 13:30 | 55.96809 | 36.90143 | 19296 ft | 362 kts | 6° |
| 2026-04-15 13:30 | 55.99259 | 36.90665 | 19765 ft | 352 kts | 23° |
| 2026-04-15 13:30 | 56.01401 | 36.92600 | 20226 ft | 341 kts | 39° |
| 2026-04-15 13:30 | 56.03395 | 36.94913 | 20744 ft | 340 kts | 39° |
| 2026-04-15 13:31 | 56.05344 | 36.97184 | 21228 ft | 338 kts | 38° |
| 2026-04-15 13:31 | 56.07320 | 36.99490 | 21705 ft | 337 kts | 38° |
| 2026-04-15 13:31 | 56.09263 | 37.01761 | 22158 ft | 337 kts | 38° |
| 2026-04-15 13:31 | 56.11223 | 37.04056 | 22623 ft | 336 kts | 39° |
| 2026-04-15 13:32 | 56.12947 | 37.06748 | 23078 ft | 328 kts | 51° |
| 2026-04-15 13:32 | 56.14545 | 37.09666 | 23549 ft | 327 kts | 50° |
| 2026-04-15 13:32 | 56.16121 | 37.12534 | 24005 ft | 326 kts | 50° |
| 2026-04-15 13:32 | 56.17715 | 37.15443 | 24440 ft | 326 kts | 50° |
| 2026-04-15 13:33 | 56.19287 | 37.18314 | 24846 ft | 326 kts | 50° |
| 2026-04-15 13:33 | 56.20884 | 37.21236 | 25252 ft | 327 kts | 50° |
| 2026-04-15 13:33 | 56.22461 | 37.24123 | 25648 ft | 328 kts | 50° |
| 2026-04-15 13:33 | 56.24063 | 37.27045 | 26050 ft | 329 kts | 47° |
| 2026-04-15 13:34 | 56.25906 | 37.29634 | 26452 ft | 334 kts | 36° |
| 2026-04-15 13:34 | 56.28016 | 37.31492 | 26834 ft | 339 kts | 26° |
| 2026-04-15 13:34 | 56.30189 | 37.33093 | 27186 ft | 341 kts | 27° |
| 2026-04-15 13:34 | 56.32429 | 37.34809 | 27211 ft | 352 kts | 27° |
| 2026-04-15 13:35 | 56.34729 | 37.36588 | 27216 ft | 361 kts | 27° |
| 2026-04-15 13:35 | 56.37097 | 37.38432 | 27215 ft | 369 kts | 27° |
| 2026-04-15 13:35 | 56.39337 | 37.40638 | 27219 ft | 372 kts | 38° |
| 2026-04-15 13:35 | 56.41348 | 37.43611 | 27223 ft | 375 kts | 48° |
| 2026-04-15 13:36 | 56.43151 | 37.47035 | 27220 ft | 381 kts | 49° |
| 2026-04-15 13:36 | 56.45006 | 37.50481 | 27218 ft | 388 kts | 49° |
| 2026-04-15 13:36 | 56.46913 | 37.54001 | 27218 ft | 394 kts | 48° |
| 2026-04-15 13:36 | 56.48850 | 37.57569 | 27219 ft | 400 kts | 48° |
| 2026-04-15 13:37 | 56.50792 | 37.61147 | 27214 ft | 405 kts | 48° |
| 2026-04-15 13:37 | 56.52781 | 37.64816 | 27213 ft | 410 kts | 48° |
| 2026-04-15 13:37 | 56.54788 | 37.68526 | 27217 ft | 415 kts | 49° |
| 2026-04-15 13:37 | 56.56799 | 37.72247 | 27218 ft | 419 kts | 49° |
| 2026-04-15 13:38 | 56.58867 | 37.76080 | 27221 ft | 423 kts | 49° |
| 2026-04-15 13:38 | 56.60915 | 37.79884 | 27220 ft | 427 kts | 49° |
| 2026-04-15 13:38 | 56.62979 | 37.83719 | 27225 ft | 430 kts | 48° |
| 2026-04-15 13:38 | 56.65131 | 37.87524 | 27223 ft | 434 kts | 47° |
| 2026-04-15 13:39 | 56.67303 | 37.91363 | 27225 ft | 437 kts | 47° |
| 2026-04-15 13:39 | 56.69488 | 37.95237 | 27226 ft | 440 kts | 47° |
| 2026-04-15 13:39 | 56.71675 | 37.99136 | 27228 ft | 442 kts | 47° |
| 2026-04-15 13:39 | 56.73870 | 38.03055 | 27227 ft | 444 kts | 47° |
| 2026-04-15 13:40 | 56.76082 | 38.07013 | 27233 ft | 446 kts | 46° |
| 2026-04-15 13:40 | 56.78309 | 38.11004 | 27233 ft | 448 kts | 47° |
| 2026-04-15 13:40 | 56.80512 | 38.14959 | 27233 ft | 450 kts | 46° |
| 2026-04-15 13:40 | 56.82756 | 38.18996 | 27233 ft | 452 kts | 46° |
| 2026-04-15 13:41 | 56.84974 | 38.22992 | 27235 ft | 453 kts | 46° |
| 2026-04-15 13:41 | 56.87221 | 38.27047 | 27234 ft | 454 kts | 46° |
| 2026-04-15 13:41 | 56.89497 | 38.31073 | 27227 ft | 456 kts | 42° |
| 2026-04-15 13:41 | 56.91967 | 38.34628 | 27232 ft | 450 kts | 40° |
| 2026-04-15 13:42 | 56.94352 | 38.38243 | 27230 ft | 441 kts | 42° |
| 2026-04-15 13:42 | 56.96633 | 38.41782 | 27230 ft | 433 kts | 42° |
| 2026-04-15 13:42 | 56.98898 | 38.45329 | 27230 ft | 425 kts | 42° |
| 2026-04-15 13:42 | 57.01132 | 38.48841 | 27227 ft | 419 kts | 42° |
| 2026-04-15 13:43 | 57.03298 | 38.52255 | 27226 ft | 413 kts | 42° |
| 2026-04-15 13:43 | 57.05476 | 38.55692 | 26717 ft | 412 kts | 42° |
| 2026-04-15 13:43 | 57.07634 | 38.59103 | 26170 ft | 406 kts | 42° |
| 2026-04-15 13:43 | 57.09743 | 38.62444 | 25639 ft | 400 kts | 42° |
| 2026-04-15 13:44 | 57.11845 | 38.65777 | 25096 ft | 395 kts | 43° |
| 2026-04-15 13:44 | 57.13909 | 38.69055 | 24557 ft | 387 kts | 43° |
| 2026-04-15 13:44 | 57.15913 | 38.72242 | 24028 ft | 379 kts | 43° |
| 2026-04-15 13:44 | 57.17891 | 38.75393 | 23486 ft | 372 kts | 43° |
| 2026-04-15 13:45 | 57.19817 | 38.78466 | 22952 ft | 366 kts | 44° |
| 2026-04-15 13:45 | 57.21698 | 38.81470 | 22426 ft | 360 kts | 44° |
| 2026-04-15 13:45 | 57.23571 | 38.84468 | 21896 ft | 355 kts | 44° |
| 2026-04-15 13:47 | 57.36019 | 39.04490 | 18242 ft | 324 kts | 44° |
| 2026-04-15 13:47 | 57.37709 | 39.07222 | 17734 ft | 320 kts | 44° |
| 2026-04-15 13:47 | 57.39359 | 39.09895 | 17235 ft | 316 kts | 45° |
| 2026-04-15 13:48 | 57.41012 | 39.12574 | 16720 ft | 312 kts | 45° |
| 2026-04-15 13:48 | 57.42584 | 39.15123 | 16150 ft | 297 kts | 45° |
| 2026-04-15 13:48 | 57.44105 | 39.17596 | 15345 ft | 293 kts | 45° |
| 2026-04-15 13:48 | 57.45634 | 39.20085 | 14420 ft | 293 kts | 45° |
| 2026-04-15 13:49 | 57.47139 | 39.22546 | 13591 ft | 289 kts | 47° |
| 2026-04-15 13:49 | 57.48234 | 39.25491 | 12742 ft | 276 kts | 74° |
| 2026-04-15 13:49 | 57.48481 | 39.28899 | 11926 ft | 269 kts | 92° |
| 2026-04-15 13:49 | 57.48449 | 39.32337 | 11136 ft | 265 kts | 93° |
| 2026-04-15 13:50 | 57.48388 | 39.35721 | 10342 ft | 263 kts | 93° |
| 2026-04-15 13:50 | 57.48345 | 39.37866 | 9854 ft | 262 kts | 93° |
| 2026-04-15 13:50 | 57.48305 | 39.39802 | 9461 ft | 260 kts | 93° |
| 2026-04-15 13:50 | 57.48236 | 39.43090 | 8728 ft | 257 kts | 93° |
| 2026-04-15 13:51 | 57.48165 | 39.46375 | 7977 ft | 254 kts | 93° |
| 2026-04-15 13:51 | 57.48094 | 39.49615 | 7231 ft | 252 kts | 93° |
| 2026-04-15 13:51 | 57.48024 | 39.52810 | 6517 ft | 249 kts | 93° |
| 2026-04-15 13:51 | 57.47953 | 39.55998 | 5800 ft | 246 kts | 93° |
| 2026-04-15 13:52 | 57.47883 | 39.59104 | 5175 ft | 240 kts | 93° |
| 2026-04-15 13:52 | 57.47813 | 39.62136 | 4517 ft | 236 kts | 92° |
| 2026-04-15 13:52 | 57.47744 | 39.65142 | 4063 ft | 228 kts | 93° |
| 2026-04-15 13:52 | 57.47682 | 39.67798 | 3834 ft | 223 kts | 93° |
| 2026-04-15 13:53 | 57.47615 | 39.70662 | 3587 ft | 219 kts | 93° |
| 2026-04-15 13:53 | 57.47549 | 39.73429 | 3350 ft | 213 kts | 93° |
| 2026-04-15 13:53 | 57.47485 | 39.76099 | 3146 ft | 201 kts | 93° |
| 2026-04-15 13:53 | 57.47425 | 39.78615 | 2878 ft | 193 kts | 93° |
| 2026-04-15 13:54 | 57.47365 | 39.81074 | 2595 ft | 187 kts | 93° |
| 2026-04-15 13:54 | 57.47386 | 39.83457 | 2288 ft | 184 kts | 76° |
| 2026-04-15 13:54 | 57.47900 | 39.85508 | 2235 ft | 170 kts | 67° |
| 2026-04-15 13:54 | 57.48424 | 39.87442 | 2218 ft | 164 kts | 67° |
| 2026-04-15 13:55 | 57.48945 | 39.89358 | 2234 ft | 169 kts | 67° |
| 2026-04-15 13:55 | 57.49478 | 39.91312 | 2226 ft | 172 kts | 66° |
| 2026-04-15 13:55 | 57.50012 | 39.93265 | 2241 ft | 162 kts | 66° |
| 2026-04-15 13:55 | 57.50491 | 39.95014 | 2227 ft | 144 kts | 67° |
| 2026-04-15 13:56 | 57.50917 | 39.96580 | 2217 ft | 134 kts | 68° |
| 2026-04-15 13:56 | 57.51339 | 39.98140 | 2236 ft | 135 kts | 68° |
| 2026-04-15 13:56 | 57.51764 | 39.99729 | 2087 ft | 138 kts | 68° |
| 2026-04-15 13:56 | 57.52188 | 40.01249 | 1842 ft | 128 kts | 67° |
| 2026-04-15 13:57 | 57.52577 | 40.02676 | 1529 ft | 123 kts | 69° |
| 2026-04-15 13:57 | 57.52944 | 40.04143 | 1301 ft | 127 kts | 70° |
| 2026-04-15 13:57 | 57.53345 | 40.05594 | 1186 ft | 126 kts | 66° |
| 2026-04-15 13:57 | 57.53749 | 40.07063 | 1024 ft | 128 kts | 68° |
| 2026-04-15 13:58 | 57.54131 | 40.08557 | 886 ft | 130 kts | 68° |
| 2026-04-15 13:58 | 57.54546 | 40.10078 | 719 ft | 132 kts | 66° |
| 2026-04-15 13:58 | 57.54946 | 40.11570 | 552 ft | 129 kts | 66° |
| 2026-04-15 13:58 | 57.55352 | 40.13088 | 376 ft | 131 kts | 66° |
| 2026-04-15 13:59 | 57.55738 | 40.14532 | 289 ft | 110 kts | 63° |
| 2026-04-15 13:59 | 57.55959 | 40.15353 | 293 ft | 39 kts | 63° |
| 2026-04-15 13:59 | 57.56064 | 40.15751 | 295 ft | 27 kts | 63° |
| 2026-04-15 13:59 | 57.56128 | 40.15992 | 297 ft | 20 kts | 64° |
| 2026-04-15 14:00 | 57.56191 | 40.16228 | 298 ft | 20 kts | 64° |
| 2026-04-15 14:00 | 57.56255 | 40.16462 | 299 ft | 20 kts | 63° |
| 2026-04-15 14:00 | 57.56319 | 40.16701 | 301 ft | 20 kts | 64° |
| 2026-04-15 14:00 | 57.56383 | 40.16948 | 301 ft | 21 kts | 63° |
| 2026-04-15 14:01 | 57.56511 | 40.17415 | 303 ft | 13 kts | 63° |
| 2026-04-15 14:01 | 57.56538 | 40.17520 | 303 ft | 4 kts | 72° |
| 2026-04-15 14:01 | 57.56532 | 40.17595 | 303 ft | 7 kts | 123° |
| 2026-04-15 14:02 | 57.56486 | 40.17651 | 302 ft | 7 kts | 155° |
| 2026-04-15 14:02 | 57.56435 | 40.17668 | 302 ft | 7 kts | 191° |
| 2026-04-15 14:02 | 57.56392 | 40.17652 | 302 ft | 5 kts | 191° |
| 2026-04-15 14:02 | 57.56363 | 40.17633 | 302 ft | 1 kts | 200° |
| 2026-04-15 14:03 | 57.56361 | 40.17633 | 302 ft | 0 kts | 200° |